Time;durP1;ratioP1;P1;durP2;ratioP2;P2;SDS_P1;SDS_P2;PMS_P1;PMS_P2;Temp;Humidity;BMP_temperature;BMP_pressure;BME280_temperature;BME280_humidity;BME280_pressure;Samples;Min_cycle;Max_cycle;Signal;HPM_P1;HPM_P2
2021/11/17 02:27:24;;;;;;;6.30;5.37;;;4.40;99.90;;;;;;5096873;28;20934;-84
2021/11/17 02:30:24;;;;;;;8.63;5.47;;;4.40;99.90;;;;;;5062419;28;20509;-84
2021/11/17 02:33:09;;;;;;;8.37;5.67;;;4.30;99.90;;;;;;5039472;28;20481;-84
2021/11/17 02:35:44;;;;;;;7.00;6.27;;;4.30;99.90;;;;;;5078158;28;20415;-84
2021/11/17 02:38:11;;;;;;;8.60;6.13;;;4.30;99.90;;;;;;5094839;28;20415;-84
2021/11/17 02:41:07;;;;;;;7.43;6.30;;;4.30;99.90;;;;;;5095521;28;20407;-84
2021/11/17 02:43:37;;;;;;;7.30;5.63;;;4.30;99.90;;;;;;5095224;28;20431;-84
2021/11/17 02:46:09;;;;;;;9.53;5.23;;;4.30;99.90;;;;;;5094377;28;20487;-84
2021/11/17 02:48:58;;;;;;;7.70;4.40;;;4.30;99.90;;;;;;5094854;28;20505;-84
2021/11/17 02:51:30;;;;;;;8.67;5.47;;;4.40;99.90;;;;;;5082174;28;20979;-84
2021/11/17 02:54:06;;;;;;;5.87;4.63;;;4.40;99.90;;;;;;5095167;28;20431;-84
2021/11/17 02:56:38;;;;;;;7.63;4.97;;;4.40;99.90;;;;;;5078052;28;20495;-84
2021/11/17 02:59:15;;;;;;;4.97;4.57;;;4.40;99.90;;;;;;5094724;28;20411;-84
2021/11/17 03:01:47;;;;;;;7.30;5.03;;;4.30;99.90;;;;;;5094813;28;20415;-84
2021/11/17 03:04:41;;;;;;;7.23;5.03;;;4.30;99.90;;;;;;5077808;28;20471;-84
2021/11/17 03:07:28;;;;;;;8.03;5.33;;;4.30;99.90;;;;;;5094840;28;20497;-84
2021/11/17 03:09:54;;;;;;;5.17;4.67;;;4.30;99.90;;;;;;5094440;28;20455;-84
2021/11/17 03:12:58;;;;;;;5.63;4.60;;;4.40;99.90;;;;;;5094422;28;20412;-84
2021/11/17 03:15:31;;;;;;;6.17;5.53;;;4.30;99.90;;;;;;4994090;28;20169;-84
2021/11/17 03:18:28;;;;;;;5.67;4.33;;;4.30;99.90;;;;;;4977458;28;20417;-84
2021/11/17 03:21:30;;;;;;;5.30;4.10;;;4.30;99.90;;;;;;5049874;28;20406;-84
2021/11/17 03:24:05;;;;;;;4.37;3.97;;;4.30;99.90;;;;;;5062779;28;20430;-84
2021/11/17 03:26:45;;;;;;;5.10;4.60;;;4.30;99.90;;;;;;5094488;28;20406;-84
2021/11/17 03:29:26;;;;;;;3.53;3.23;;;4.30;99.90;;;;;;5077303;28;20503;-84
2021/11/17 03:32:01;;;;;;;4.10;3.70;;;4.30;99.90;;;;;;5094348;28;20407;-84
2021/11/17 03:34:39;;;;;;;4.40;3.73;;;4.40;99.90;;;;;;5094163;28;20476;-84
2021/11/17 03:37:20;;;;;;;4.97;4.00;;;4.40;99.90;;;;;;5077766;28;20412;-84
2021/11/17 03:39:51;;;;;;;4.63;4.10;;;4.40;99.90;;;;;;5077204;28;20420;-84
2021/11/17 03:42:20;;;;;;;6.07;4.87;;;4.50;99.90;;;;;;5094100;28;20415;-84
2021/11/17 03:45:06;;;;;;;4.07;3.70;;;4.50;99.90;;;;;;5094196;28;20420;-84
2021/11/17 03:47:57;;;;;;;4.70;4.20;;;4.50;99.90;;;;;;5094020;28;20412;-84
2021/11/17 03:51:00;;;;;;;4.30;3.90;;;4.50;99.90;;;;;;5094043;28;20991;-84
2021/11/17 03:53:34;;;;;;;5.83;4.20;;;4.60;99.90;;;;;;5093950;28;20857;-84
2021/11/17 03:56:23;;;;;;;3.60;3.27;;;4.60;99.90;;;;;;5094034;28;20487;-84
2021/11/17 03:59:11;;;;;;;3.60;3.23;;;4.60;99.90;;;;;;5096950;28;20552;-84
2021/11/17 04:02:04;;;;;;;5.40;3.77;;;4.60;99.90;;;;;;5098014;28;20403;-84
2021/11/17 04:04:55;;;;;;;4.90;4.50;;;4.60;99.90;;;;;;5081796;28;20427;-84
2021/11/17 04:07:45;;;;;;;3.80;3.40;;;4.50;99.90;;;;;;5065425;28;20411;-84
2021/11/17 04:10:35;;;;;;;5.40;4.17;;;4.60;99.90;;;;;;5097837;28;20416;-84
2021/11/17 04:13:16;;;;;;;4.57;3.63;;;4.50;99.90;;;;;;5097500;28;20424;-84
2021/11/17 04:16:12;;;;;;;6.30;4.97;;;4.60;99.90;;;;;;5097693;28;20895;-84
2021/11/17 04:19:22;;;;;;;3.67;3.37;;;4.50;99.90;;;;;;5082410;28;20407;-84
2021/11/17 04:21:48;;;;;;;3.87;3.03;;;4.50;99.90;;;;;;5080675;28;20448;-84
2021/11/17 04:24:26;;;;;;;3.93;3.53;;;4.50;99.90;;;;;;5097485;28;20514;-84
2021/11/17 04:27:00;;;;;;;3.80;2.80;;;4.50;99.90;;;;;;5081090;28;20170;-84
2021/11/17 04:29:47;;;;;;;4.67;3.47;;;4.50;99.90;;;;;;5096946;28;21033;-84
2021/11/17 04:32:37;;;;;;;4.30;3.87;;;4.50;99.90;;;;;;5097332;28;20465;-84
2021/11/17 04:35:10;;;;;;;3.20;2.90;;;4.60;99.90;;;;;;5115719;28;20392;-84
2021/11/17 04:37:51;;;;;;;3.27;2.97;;;4.60;99.90;;;;;;5080307;28;20404;-84
2021/11/17 04:40:28;;;;;;;3.07;2.83;;;4.60;99.90;;;;;;5097273;28;20404;-84
2021/11/17 04:43:07;;;;;;;4.63;3.90;;;4.60;99.90;;;;;;5080197;28;20462;-84
2021/11/17 04:45:39;;;;;;;3.47;3.17;;;4.60;99.90;;;;;;5080781;28;20823;-84
2021/11/17 04:48:46;;;;;;;3.27;2.93;;;4.60;99.90;;;;;;5096924;28;20447;-84
2021/11/17 04:51:45;;;;;;;3.70;3.40;;;4.70;99.90;;;;;;5063116;28;20418;-84
2021/11/17 04:54:33;;;;;;;4.13;3.73;;;4.80;99.90;;;;;;5082234;28;20866;-84
2021/11/17 04:57:05;;;;;;;3.50;3.20;;;4.80;99.90;;;;;;5080020;28;20472;-83
2021/11/17 05:00:02;;;;;;;3.37;2.87;;;4.80;99.90;;;;;;5096622;28;20938;-84
2021/11/17 05:02:58;;;;;;;3.53;3.23;;;4.80;99.90;;;;;;5114978;28;20422;-84
2021/11/17 05:05:35;;;;;;;3.47;2.87;;;4.80;99.90;;;;;;5082454;28;20447;-84
2021/11/17 05:08:04;;;;;;;4.93;3.20;;;4.80;99.90;;;;;;5080291;28;20462;-84
2021/11/17 05:10:51;;;;;;;3.60;3.30;;;4.80;99.90;;;;;;5095783;28;20411;-84
2021/11/17 05:13:34;;;;;;;3.30;2.83;;;4.80;99.90;;;;;;5096430;28;20420;-84
2021/11/17 05:16:09;;;;;;;3.33;3.00;;;4.80;99.90;;;;;;5096705;28;20407;-84
2021/11/17 05:18:59;;;;;;;4.20;2.90;;;4.70;99.90;;;;;;5079536;28;20407;-84
2021/11/17 05:21:43;;;;;;;3.60;3.17;;;4.70;99.90;;;;;;5079598;28;20499;-84
2021/11/17 05:24:20;;;;;;;3.83;3.37;;;4.70;99.90;;;;;;5080911;28;20943;-84
2021/11/17 05:26:49;;;;;;;5.30;4.20;;;4.70;99.90;;;;;;5096636;28;20781;-84
2021/11/17 05:29:27;;;;;;;5.30;3.63;;;4.70;99.90;;;;;;5096188;28;20970;-84
2021/11/17 05:32:14;;;;;;;4.60;3.80;;;4.80;99.90;;;;;;5079373;28;20407;-84
2021/11/17 05:34:58;;;;;;;5.43;4.77;;;4.80;99.90;;;;;;5096288;28;20411;-84
2021/11/17 05:37:30;;;;;;;3.17;2.70;;;4.80;99.90;;;;;;5096134;28;20404;-83
2021/11/17 05:40:24;;;;;;;5.00;4.30;;;4.90;99.90;;;;;;5079312;28;20408;-84
2021/11/17 05:43:02;;;;;;;5.43;3.93;;;4.80;99.90;;;;;;5081648;28;20436;-84
2021/11/17 05:45:37;;;;;;;6.23;3.97;;;4.80;99.90;;;;;;5079108;28;20407;-84
2021/11/17 05:48:09;;;;;;;4.87;3.87;;;4.90;99.90;;;;;;5078947;28;20412;-84
2021/11/17 05:50:53;;;;;;;6.20;4.70;;;4.90;99.90;;;;;;5096138;28;20827;-84
2021/11/17 05:53:21;;;;;;;7.50;6.20;;;4.90;99.90;;;;;;5095684;28;20426;-84
2021/11/17 05:55:50;;;;;;;5.87;4.77;;;5.00;99.90;;;;;;5095813;28;20436;-84
2021/11/17 05:58:34;;;;;;;6.73;4.70;;;5.00;99.90;;;;;;5095487;28;20408;-84
2021/11/17 06:01:13;;;;;;;7.13;5.53;;;5.00;99.90;;;;;;5095791;28;21016;-84
2021/11/17 06:04:05;;;;;;;8.17;5.27;;;5.00;99.90;;;;;;5095575;28;20434;-84
2021/11/17 06:06:36;;;;;;;6.10;5.13;;;4.90;99.90;;;;;;5095626;28;20408;-84
2021/11/17 06:09:02;;;;;;;6.07;4.93;;;5.00;99.90;;;;;;5095205;28;20462;-84
2021/11/17 06:11:52;;;;;;;4.30;3.83;;;5.00;99.90;;;;;;5095409;28;20395;-84
2021/11/17 06:14:28;;;;;;;5.27;4.50;;;5.00;99.90;;;;;;5095490;28;20646;-84
2021/11/17 06:16:59;;;;;;;6.40;5.10;;;5.00;99.90;;;;;;5095474;28;20911;-84
2021/11/17 06:19:28;;;;;;;5.80;4.40;;;5.00;99.90;;;;;;5094940;28;20908;-84
2021/11/17 06:21:55;;;;;;;6.70;4.57;;;5.00;99.90;;;;;;5095262;28;20456;-84
2021/11/17 06:24:23;;;;;;;4.87;4.37;;;5.00;99.90;;;;;;5097036;28;20427;-84
2021/11/17 06:26:51;;;;;;;8.10;5.17;;;5.10;99.90;;;;;;5095893;28;20411;-84
2021/11/17 06:29:23;;;;;;;6.93;5.50;;;5.10;99.90;;;;;;5095018;28;20505;-84
2021/11/17 06:31:50;;;;;;;5.83;5.23;;;5.00;99.90;;;;;;5095322;28;20468;-84
2021/11/17 06:34:40;;;;;;;6.33;5.40;;;5.10;99.90;;;;;;5095031;28;20439;-84
2021/11/17 06:37:17;;;;;;;6.37;4.83;;;5.20;99.90;;;;;;5095046;28;20477;-84
2021/11/17 06:39:46;;;;;;;9.03;6.47;;;5.20;99.90;;;;;;5094798;28;20782;-84
2021/11/17 06:42:16;;;;;;;7.33;5.87;;;5.20;99.90;;;;;;5094736;28;20784;-84
2021/11/17 06:44:43;;;;;;;7.30;5.40;;;5.30;99.90;;;;;;5094675;28;20415;-84
2021/11/17 06:47:09;;;;;;;6.17;5.57;;;5.30;99.90;;;;;;5094529;28;20412;-84
2021/11/17 06:49:35;;;;;;;4.50;4.10;;;5.20;99.90;;;;;;5094351;28;20505;-84
2021/11/17 06:52:01;;;;;;;6.00;5.17;;;5.30;99.90;;;;;;5094477;28;20404;-84
2021/11/17 06:54:27;;;;;;;6.80;5.50;;;5.30;99.90;;;;;;5094414;28;20190;-84
2021/11/17 06:56:53;;;;;;;7.03;5.90;;;5.40;99.90;;;;;;5094424;28;20403;-84
2021/11/17 06:59:19;;;;;;;6.97;4.80;;;5.40;99.90;;;;;;5094308;28;20169;-84
2021/11/17 07:01:45;;;;;;;7.60;5.33;;;5.40;99.90;;;;;;5094533;28;20227;-84
2021/11/17 07:04:10;;;;;;;5.17;4.50;;;5.50;99.90;;;;;;5094372;28;20838;-84
2021/11/17 07:06:36;;;;;;;9.37;6.93;;;5.60;99.90;;;;;;5094525;28;20501;-84
2021/11/17 07:09:05;;;;;;;12.07;9.77;;;5.60;99.90;;;;;;5069439;28;20456;-84
2021/11/17 07:11:37;;;;;;;8.60;6.60;;;5.60;99.90;;;;;;5071286;28;20404;-84
2021/11/17 07:14:08;;;;;;;7.50;6.20;;;5.60;99.90;;;;;;5093747;28;20438;-85
2021/11/17 07:16:35;;;;;;;7.03;6.33;;;5.60;99.90;;;;;;5094435;28;20404;-86
2021/11/17 07:19:02;;;;;;;9.30;5.90;;;5.60;99.90;;;;;;5093946;28;20410;-86
2021/11/17 07:21:29;;;;;;;7.60;5.40;;;5.60;99.90;;;;;;5093713;28;20476;-86
2021/11/17 07:23:55;;;;;;;5.60;5.00;;;5.70;99.90;;;;;;5112466;28;20506;-86
2021/11/17 07:26:21;;;;;;;7.00;4.27;;;5.70;99.90;;;;;;5094581;28;20412;-86
2021/11/17 07:28:46;;;;;;;8.70;6.20;;;5.70;99.90;;;;;;5079695;28;20445;-87
2021/11/17 07:31:13;;;;;;;6.83;4.97;;;5.70;99.90;;;;;;5074062;28;20239;-86
2021/11/17 07:33:39;;;;;;;5.83;5.20;;;5.80;99.90;;;;;;5073577;28;20282;-86
2021/11/17 07:36:05;;;;;;;8.37;5.93;;;5.90;99.90;;;;;;5073888;28;20481;-86
2021/11/17 07:38:31;;;;;;;4.83;4.30;;;6.00;99.90;;;;;;5073831;28;20416;-85
2021/11/17 07:40:57;;;;;;;5.77;5.17;;;6.00;99.90;;;;;;5073845;28;20901;-86
2021/11/17 07:43:25;;;;;;;7.20;4.67;;;6.10;99.90;;;;;;5073931;28;20601;-86
2021/11/17 07:45:51;;;;;;;5.07;4.60;;;6.10;99.90;;;;;;5073804;28;20171;-84
2021/11/17 07:48:19;;;;;;;4.47;4.17;;;6.10;99.90;;;;;;5073610;28;20448;-84
2021/11/17 07:50:46;;;;;;;5.50;4.20;;;6.20;99.90;;;;;;5073804;28;20221;-84
2021/11/17 07:53:14;;;;;;;5.67;5.17;;;6.30;99.90;;;;;;5073688;28;20953;-85
2021/11/17 07:55:43;;;;;;;8.63;5.73;;;6.30;99.90;;;;;;5073518;28;20504;-85
2021/11/17 07:58:10;;;;;;;5.80;4.90;;;6.40;99.90;;;;;;5073637;28;20414;-85
2021/11/17 08:00:40;;;;;;;5.10;4.60;;;6.50;99.90;;;;;;5073592;28;20409;-85
2021/11/17 08:03:08;;;;;;;4.70;4.30;;;6.50;99.90;;;;;;5073623;28;20466;-85
2021/11/17 08:05:34;;;;;;;4.60;4.20;;;6.50;99.90;;;;;;5073541;28;20500;-85
2021/11/17 08:08:01;;;;;;;4.70;4.30;;;6.50;99.90;;;;;;5073295;28;20521;-85
2021/11/17 08:10:29;;;;;;;4.53;4.03;;;6.50;99.90;;;;;;5073727;28;20591;-85
2021/11/17 08:12:55;;;;;;;5.83;5.40;;;6.60;99.90;;;;;;5073254;28;20421;-85
2021/11/17 08:15:21;;;;;;;4.47;3.77;;;6.50;99.90;;;;;;5073661;28;20437;-85
2021/11/17 08:17:46;;;;;;;5.20;4.47;;;6.60;99.90;;;;;;5073690;28;20177;-85
2021/11/17 08:20:16;;;;;;;6.63;5.00;;;6.60;99.90;;;;;;5073530;28;20413;-84
2021/11/17 08:22:44;;;;;;;5.27;4.40;;;6.50;99.90;;;;;;5073295;28;20236;-85
2021/11/17 08:25:11;;;;;;;5.00;4.53;;;6.50;99.90;;;;;;5073504;28;20786;-85
2021/11/17 08:27:38;;;;;;;5.43;4.93;;;6.60;99.90;;;;;;5073188;28;20429;-85
2021/11/17 08:30:09;;;;;;;4.30;3.90;;;6.70;99.90;;;;;;5073295;28;20452;-85
2021/11/17 08:32:34;;;;;;;4.57;4.17;;;6.70;99.90;;;;;;5073423;28;20428;-86
2021/11/17 08:35:00;;;;;;;6.63;5.57;;;6.70;99.90;;;;;;5073499;28;20410;-84
2021/11/17 08:37:25;;;;;;;6.20;5.13;;;6.70;99.90;;;;;;5073565;28;20226;-83
2021/11/17 08:39:53;;;;;;;8.07;5.23;;;6.70;99.90;;;;;;5073495;28;20181;-83
2021/11/17 08:42:20;;;;;;;5.00;4.50;;;6.80;99.90;;;;;;5073677;28;20651;-86
2021/11/17 08:44:45;;;;;;;5.53;4.90;;;6.70;99.90;;;;;;5074537;28;20421;-85
2021/11/17 08:47:13;;;;;;;6.90;5.50;;;6.70;99.90;;;;;;5076745;28;20418;-85
2021/11/17 08:49:39;;;;;;;4.63;4.00;;;6.70;99.90;;;;;;5076553;28;20252;-82
2021/11/17 08:52:06;;;;;;;5.03;4.53;;;6.80;99.90;;;;;;5076424;28;20829;-82
2021/11/17 08:54:33;;;;;;;6.83;6.20;;;6.70;99.90;;;;;;5076385;28;20484;-82
2021/11/17 08:57:00;;;;;;;6.47;5.07;;;6.80;99.90;;;;;;5076751;28;20413;-83
2021/11/17 08:59:27;;;;;;;7.00;6.30;;;6.80;99.90;;;;;;5076453;28;20414;-83
2021/11/17 09:01:57;;;;;;;5.90;5.30;;;6.80;99.90;;;;;;5076857;28;20777;-83
2021/11/17 09:04:23;;;;;;;5.30;4.83;;;6.80;99.90;;;;;;5076287;28;20442;-82
2021/11/17 09:06:49;;;;;;;9.60;6.17;;;6.90;99.90;;;;;;5076381;28;20446;-83
2021/11/17 09:09:18;;;;;;;10.60;7.90;;;6.80;99.90;;;;;;5075931;28;20502;-82
2021/11/17 09:11:44;;;;;;;6.60;5.90;;;6.90;99.90;;;;;;5076352;28;20270;-82
2021/11/17 09:14:10;;;;;;;7.50;6.30;;;6.90;99.90;;;;;;5076227;28;20520;-82
2021/11/17 09:16:39;;;;;;;7.60;6.60;;;6.80;99.90;;;;;;5076196;28;20168;-82
2021/11/17 09:19:06;;;;;;;7.27;6.47;;;6.90;99.90;;;;;;5075744;28;20418;-83
2021/11/17 09:21:33;;;;;;;8.67;6.70;;;6.90;99.90;;;;;;5076177;28;20417;-82
2021/11/17 09:24:01;;;;;;;9.57;6.13;;;7.00;99.90;;;;;;5076046;28;20448;-83
2021/11/17 09:26:27;;;;;;;8.67;6.40;;;7.00;99.90;;;;;;5076057;28;20421;-82
2021/11/17 09:28:55;;;;;;;8.17;5.47;;;7.00;99.90;;;;;;5075640;28;20449;-82
2021/11/17 09:31:23;;;;;;;9.67;6.50;;;7.00;99.90;;;;;;5076106;28;20171;-85
2021/11/17 09:33:48;;;;;;;7.90;6.90;;;7.10;99.90;;;;;;5075578;28;20432;-83
2021/11/17 09:36:19;;;;;;;9.40;6.23;;;7.10;99.90;;;;;;5075878;28;20810;-85
2021/11/17 09:38:50;;;;;;;9.27;7.10;;;7.10;99.90;;;;;;5075544;28;20660;-84
2021/11/17 09:41:22;;;;;;;9.07;6.67;;;7.10;99.90;;;;;;5076179;28;20472;-83
2021/11/17 09:43:52;;;;;;;7.60;6.63;;;7.20;99.90;;;;;;5075881;28;20810;-83
2021/11/17 09:46:20;;;;;;;6.33;5.73;;;7.20;99.90;;;;;;5075380;28;20491;-83
2021/11/17 09:48:49;;;;;;;7.23;6.50;;;7.20;99.90;;;;;;5075599;28;20550;-83
2021/11/17 09:51:22;;;;;;;10.83;6.83;;;7.20;99.90;;;;;;5075829;28;20477;-83
2021/11/17 09:54:08;;;;;;;7.40;5.87;;;7.30;99.90;;;;;;5075915;28;20450;-83
2021/11/17 09:56:42;;;;;;;7.60;5.67;;;7.30;99.90;;;;;;5074839;28;20410;-84
2021/11/17 09:59:52;;;;;;;8.60;5.13;;;7.30;99.90;;;;;;5075076;28;20524;-83
2021/11/17 10:02:28;;;;;;;7.63;6.83;;;7.30;99.90;;;;;;5064757;28;20415;-83
2021/11/17 10:05:15;;;;;;;9.37;5.83;;;7.30;99.90;;;;;;5075505;28;20895;-85
2021/11/17 10:13:49;;;;;;;10.93;5.80;;;7.30;99.90;;;;;;5093221;28;20433;-85
2021/11/17 10:16:15;;;;;;;6.10;5.50;;;7.30;99.90;;;;;;5026241;28;20914;-84
2021/11/17 10:18:49;;;;;;;6.70;5.50;;;7.30;99.90;;;;;;5074920;28;20414;-84
2021/11/17 10:21:27;;;;;;;5.87;4.80;;;7.40;99.90;;;;;;5074971;28;20470;-84
2021/11/17 10:24:07;;;;;;;8.80;6.03;;;7.40;99.90;;;;;;5074710;28;20523;-86
2021/11/17 10:26:59;;;;;;;5.80;5.27;;;7.40;99.90;;;;;;5074954;28;20474;-86
2021/11/17 10:29:33;;;;;;;6.70;5.83;;;7.40;99.90;;;;;;5074624;28;20864;-85
2021/11/17 10:32:04;;;;;;;6.10;5.50;;;7.40;99.90;;;;;;5074736;28;20476;-86
2021/11/17 10:34:34;;;;;;;8.20;6.90;;;7.40;99.90;;;;;;5074753;28;20561;-83
2021/11/17 10:37:32;;;;;;;11.57;7.43;;;7.40;99.90;;;;;;5074876;28;20407;-83
2021/11/17 10:40:11;;;;;;;8.07;7.30;;;7.50;99.90;;;;;;5056977;28;20407;-84
2021/11/17 10:42:39;;;;;;;8.17;7.43;;;7.50;99.90;;;;;;5074592;28;20465;-84
2021/11/17 10:45:11;;;;;;;8.73;7.47;;;7.50;99.90;;;;;;5074598;28;20461;-84
2021/11/17 10:47:44;;;;;;;7.50;6.80;;;7.50;99.90;;;;;;5074360;28;20411;-84
2021/11/17 10:50:36;;;;;;;7.63;6.40;;;7.50;99.90;;;;;;5074609;28;20455;-84
2021/11/17 10:53:14;;;;;;;11.40;7.30;;;7.50;99.90;;;;;;5074589;28;21008;-84
2021/11/17 10:55:48;;;;;;;8.23;7.43;;;7.50;99.90;;;;;;5075008;28;20461;-84
2021/11/17 10:58:30;;;;;;;8.33;7.53;;;7.50;99.90;;;;;;5075009;28;20443;-83
2021/11/17 11:01:04;;;;;;;7.37;6.47;;;7.50;99.90;;;;;;5075137;28;20409;-83
2021/11/17 11:03:37;;;;;;;10.97;7.90;;;7.50;99.90;;;;;;5074811;28;20484;-82
2021/11/17 11:06:16;;;;;;;9.70;7.40;;;7.60;99.90;;;;;;5074645;28;20408;-82
2021/11/17 11:08:49;;;;;;;10.23;7.40;;;7.60;99.90;;;;;;5073800;28;20460;-82
2021/11/17 11:11:15;;;;;;;9.50;7.80;;;7.60;99.90;;;;;;5074612;28;20416;-82
2021/11/17 11:13:53;;;;;;;15.73;7.67;;;7.60;99.90;;;;;;5074111;28;20458;-81
2021/11/17 11:16:37;;;;;;;7.50;6.70;;;7.60;99.90;;;;;;5074695;28;20415;-81
2021/11/17 11:19:08;;;;;;;8.63;7.10;;;7.60;99.90;;;;;;5092435;28;20404;-81
2021/11/17 11:21:43;;;;;;;11.97;8.70;;;7.60;99.90;;;;;;5074580;28;20408;-84
2021/11/17 11:24:31;;;;;;;7.47;6.77;;;7.60;99.90;;;;;;5074142;28;20851;-85
2021/11/17 11:27:09;;;;;;;7.73;6.33;;;7.60;99.90;;;;;;5074429;28;20499;-85
2021/11/17 11:29:38;;;;;;;9.70;8.33;;;7.60;99.90;;;;;;5074272;28;20626;-83
2021/11/17 11:32:10;;;;;;;13.27;8.53;;;7.60;99.90;;;;;;5073841;28;20418;-84
2021/11/17 11:34:47;;;;;;;13.57;8.87;;;7.50;99.90;;;;;;5073567;28;20453;-85
2021/11/17 11:37:33;;;;;;;12.27;8.10;;;7.60;99.90;;;;;;5073693;28;20442;-85
2021/11/17 11:40:04;;;;;;;10.60;8.80;;;7.60;99.90;;;;;;5057038;28;20453;-84
2021/11/17 11:42:51;;;;;;;9.90;7.70;;;7.70;99.90;;;;;;5073950;28;20405;-84
2021/11/17 11:45:25;;;;;;;12.23;8.90;;;7.70;99.90;;;;;;5073776;28;20950;-85
2021/11/17 11:48:25;;;;;;;12.70;7.80;;;7.60;99.90;;;;;;5073458;28;20925;-85
2021/11/17 11:51:23;;;;;;;13.03;7.53;;;7.60;99.90;;;;;;5074249;28;20417;-84
2021/11/17 11:53:58;;;;;;;16.40;8.30;;;7.60;99.90;;;;;;5056683;28;20607;-84
2021/11/17 11:56:29;;;;;;;9.03;7.07;;;7.60;99.90;;;;;;5074547;28;20510;-84
2021/11/17 11:59:12;;;;;;;9.77;6.87;;;7.60;99.90;;;;;;5073940;28;20488;-85
2021/11/17 12:01:38;;;;;;;13.70;8.40;;;7.60;99.90;;;;;;5074105;28;20449;-84
2021/11/17 12:04:23;;;;;;;12.40;7.40;;;7.60;99.90;;;;;;5074088;28;20430;-82
2021/11/17 12:06:57;;;;;;;9.83;7.60;;;7.60;99.90;;;;;;5073745;28;20403;-82
2021/11/17 12:09:33;;;;;;;9.00;7.33;;;7.60;99.90;;;;;;5073773;28;20467;-81
2021/11/17 12:12:10;;;;;;;7.97;6.80;;;7.60;99.90;;;;;;5073555;28;20404;-81
2021/11/17 12:15:09;;;;;;;6.33;5.73;;;7.60;99.90;;;;;;5073928;28;20496;-82
2021/11/17 12:17:35;;;;;;;9.07;6.20;;;7.60;99.90;;;;;;5073696;28;20408;-82
2021/11/17 12:20:18;;;;;;;10.03;7.90;;;7.60;99.90;;;;;;5077812;28;20939;-83
2021/11/17 12:22:50;;;;;;;12.70;6.63;;;7.70;99.90;;;;;;5077906;28;20259;-83
2021/11/17 12:25:21;;;;;;;10.30;7.40;;;7.70;99.90;;;;;;5077937;28;20420;-83
2021/11/17 12:27:55;;;;;;;8.07;7.00;;;7.60;99.90;;;;;;5077771;28;20416;-82
2021/11/17 12:30:43;;;;;;;10.87;6.63;;;7.60;99.90;;;;;;5077816;28;20882;-82
2021/11/17 12:33:17;;;;;;;13.20;6.57;;;7.60;99.90;;;;;;5077819;28;20427;-82
2021/11/17 12:36:06;;;;;;;8.93;7.00;;;7.60;99.90;;;;;;5077845;28;20922;-82
2021/11/17 12:38:35;;;;;;;11.47;6.27;;;7.60;99.90;;;;;;5077487;28;20859;-84
2021/11/17 12:41:26;;;;;;;8.70;7.17;;;7.60;99.90;;;;;;5077308;28;20412;-83
2021/11/17 12:44:00;;;;;;;9.00;7.00;;;7.60;99.90;;;;;;5065236;28;20432;-85
2021/11/17 12:46:58;;;;;;;6.93;6.23;;;7.70;99.90;;;;;;5076796;28;20425;-84
2021/11/17 12:49:34;;;;;;;8.13;6.93;;;7.80;99.90;;;;;;5063067;28;20997;-84
2021/11/17 12:52:23;;;;;;;9.83;6.80;;;7.70;99.90;;;;;;5077217;28;20487;-84
2021/11/17 12:54:59;;;;;;;8.80;6.83;;;7.80;99.90;;;;;;5076873;28;20411;-83
2021/11/17 12:57:41;;;;;;;8.90;6.60;;;7.70;99.90;;;;;;5076570;28;20494;-84
2021/11/17 13:00:13;;;;;;;8.33;6.50;;;7.70;99.90;;;;;;5076368;28;20415;-83
2021/11/17 13:02:42;;;;;;;7.93;7.13;;;7.60;99.90;;;;;;5076362;28;20436;-84
2021/11/17 13:05:24;;;;;;;9.23;6.20;;;7.60;99.90;;;;;;5076426;28;20405;-85
2021/11/17 13:07:57;;;;;;;9.07;6.93;;;7.70;99.90;;;;;;5076086;28;20454;-84
2021/11/17 13:10:34;;;;;;;8.77;6.23;;;7.80;99.90;;;;;;5076140;28;20451;-84
2021/11/17 13:13:14;;;;;;;6.83;5.70;;;7.80;99.90;;;;;;5076032;28;20438;-84
2021/11/17 13:16:03;;;;;;;11.50;7.17;;;7.70;99.90;;;;;;5076234;28;20927;-84
2021/11/17 13:18:31;;;;;;;6.70;5.93;;;7.70;99.90;;;;;;5076179;28;20416;-83
2021/11/17 13:21:09;;;;;;;8.57;6.57;;;7.70;99.90;;;;;;5076175;28;20411;-84
2021/11/17 13:23:39;;;;;;;9.30;6.23;;;7.60;99.90;;;;;;5075987;28;20439;-84
2021/11/17 13:26:26;;;;;;;7.07;6.20;;;7.60;99.90;;;;;;5076174;28;20419;-82
2021/11/17 13:28:53;;;;;;;9.20;7.70;;;7.70;99.90;;;;;;5075594;28;21006;-85
2021/11/17 13:31:32;;;;;;;8.50;6.90;;;7.70;99.90;;;;;;5089939;28;20717;-84
2021/11/17 13:34:11;;;;;;;7.73;7.03;;;7.80;99.90;;;;;;5097069;28;20474;-85
2021/11/17 13:36:45;;;;;;;10.07;6.70;;;7.70;99.90;;;;;;5062066;28;20422;-83
2021/11/17 13:39:12;;;;;;;7.63;6.53;;;7.70;99.90;;;;;;5055637;28;20417;-82
2021/11/17 13:41:41;;;;;;;8.57;6.43;;;7.70;99.90;;;;;;5055737;28;20416;-81
2021/11/17 13:44:08;;;;;;;7.50;6.00;;;7.70;99.90;;;;;;5075069;28;20437;-81
2021/11/17 13:46:35;;;;;;;7.27;6.53;;;7.70;99.90;;;;;;5095677;28;20497;-82
2021/11/17 13:49:03;;;;;;;6.23;5.53;;;7.70;99.90;;;;;;5095428;28;20527;-82
2021/11/17 13:51:28;;;;;;;6.23;5.47;;;7.80;99.90;;;;;;5095470;28;20806;-82
2021/11/17 13:53:55;;;;;;;6.87;5.90;;;7.80;99.90;;;;;;5095627;28;20488;-82
2021/11/17 13:56:28;;;;;;;6.97;5.47;;;7.80;99.90;;;;;;5095350;28;20168;-83
2021/11/17 13:58:54;;;;;;;7.00;5.90;;;7.80;99.90;;;;;;5095360;28;20468;-81
2021/11/17 14:01:21;;;;;;;6.30;4.80;;;7.80;99.90;;;;;;5095335;28;20921;-81
2021/11/17 14:03:46;;;;;;;9.37;7.10;;;7.80;99.90;;;;;;5095500;28;20800;-79
2021/11/17 14:06:16;;;;;;;9.13;7.20;;;7.80;99.90;;;;;;5095366;28;20417;-82
2021/11/17 14:08:41;;;;;;;7.30;6.50;;;7.70;99.90;;;;;;5094694;28;20201;-82
2021/11/17 14:11:08;;;;;;;6.47;5.73;;;7.80;99.90;;;;;;5095196;28;20423;-82
2021/11/17 14:13:34;;;;;;;7.80;6.37;;;7.80;99.90;;;;;;5093920;28;20189;-82
2021/11/17 14:16:01;;;;;;;8.40;6.30;;;7.80;99.90;;;;;;5095153;28;20907;-82
2021/11/17 14:18:29;;;;;;;9.73;6.33;;;7.80;99.90;;;;;;5076340;28;20997;-82
2021/11/17 14:20:56;;;;;;;8.13;7.33;;;7.80;99.90;;;;;;5074687;28;20503;-83
2021/11/17 14:23:22;;;;;;;8.70;7.33;;;7.80;99.90;;;;;;5074394;28;20463;-83
2021/11/17 14:25:47;;;;;;;11.27;8.07;;;7.80;99.90;;;;;;5075088;28;20423;-82
2021/11/17 14:28:17;;;;;;;9.83;7.33;;;7.80;99.90;;;;;;5074278;28;20257;-82
2021/11/17 14:30:49;;;;;;;7.93;6.70;;;7.80;99.90;;;;;;5074696;28;20201;-82
2021/11/17 14:33:20;;;;;;;7.57;6.87;;;7.70;99.90;;;;;;5075171;28;20425;-83
2021/11/17 14:35:46;;;;;;;7.73;6.87;;;7.70;99.90;;;;;;5074866;28;20411;-82
2021/11/17 14:38:17;;;;;;;11.60;7.93;;;7.70;99.90;;;;;;5072199;28;20404;-82
2021/11/17 14:40:44;;;;;;;11.20;7.97;;;7.80;99.90;;;;;;5080263;28;20415;-82
2021/11/17 14:43:10;;;;;;;7.73;7.00;;;7.80;99.90;;;;;;5094100;28;20829;-82
2021/11/17 14:45:35;;;;;;;8.83;7.60;;;7.80;99.90;;;;;;5096234;28;20490;-82
2021/11/17 14:48:01;;;;;;;11.40;8.57;;;7.70;99.90;;;;;;5095009;28;20251;-82
2021/11/17 14:50:27;;;;;;;7.43;6.73;;;7.70;99.90;;;;;;5083748;28;20202;-82
2021/11/17 14:52:53;;;;;;;8.83;7.77;;;7.70;99.90;;;;;;5074123;28;20860;-82
2021/11/17 14:55:23;;;;;;;10.23;8.13;;;7.80;99.90;;;;;;5074240;28;20866;-83
2021/11/17 14:57:49;;;;;;;9.43;8.27;;;7.80;99.90;;;;;;5073729;28;20167;-82
2021/11/17 15:00:23;;;;;;;9.70;7.47;;;7.70;99.90;;;;;;5074416;28;20506;-86
2021/11/17 15:02:49;;;;;;;8.53;6.90;;;7.80;99.90;;;;;;5074360;28;20463;-86
2021/11/17 15:05:15;;;;;;;8.07;6.97;;;7.70;99.90;;;;;;5073911;28;20408;-86
2021/11/17 15:07:42;;;;;;;7.50;6.80;;;7.80;99.90;;;;;;5073892;28;20408;-86
2021/11/17 15:10:10;;;;;;;10.47;8.33;;;7.80;99.90;;;;;;5073908;28;20466;-84
2021/11/17 15:12:37;;;;;;;8.17;7.37;;;7.80;99.90;;;;;;5073880;28;20435;-83
2021/11/17 15:15:09;;;;;;;8.30;7.50;;;7.80;99.90;;;;;;5073974;28;20414;-84
2021/11/17 15:17:35;;;;;;;7.67;6.83;;;7.80;99.90;;;;;;5073609;28;20413;-85
2021/11/17 15:20:01;;;;;;;7.60;6.83;;;7.80;99.90;;;;;;5074069;28;20499;-85
2021/11/17 15:22:27;;;;;;;7.83;6.97;;;7.70;99.90;;;;;;5073875;28;20499;-85
2021/11/17 15:24:53;;;;;;;7.07;6.40;;;7.70;99.90;;;;;;5073949;28;20642;-85
2021/11/17 15:27:30;;;;;;;7.10;5.13;;;7.80;99.90;;;;;;5073371;28;20458;-85
2021/11/17 15:29:56;;;;;;;5.80;5.23;;;7.80;99.90;;;;;;5073427;28;20251;-85
2021/11/17 15:32:22;;;;;;;5.33;4.93;;;7.80;99.90;;;;;;5073947;28;20408;-85
2021/11/17 15:34:48;;;;;;;7.63;5.33;;;7.80;99.90;;;;;;5074001;28;20774;-85
2021/11/17 15:37:14;;;;;;;7.20;5.30;;;7.80;99.90;;;;;;5073924;28;20170;-85
2021/11/17 15:39:40;;;;;;;6.60;5.70;;;7.80;99.90;;;;;;5073634;28;20185;-85
2021/11/17 15:42:07;;;;;;;9.43;6.83;;;7.70;99.90;;;;;;5073996;28;20458;-85
2021/11/17 15:44:33;;;;;;;10.10;7.27;;;7.80;99.90;;;;;;5073669;28;20285;-86
2021/11/17 15:47:04;;;;;;;8.73;6.87;;;7.80;99.90;;;;;;5073833;28;20409;-86
2021/11/17 15:49:31;;;;;;;13.00;8.07;;;7.80;99.90;;;;;;5073699;28;20805;-86
2021/11/17 15:51:58;;;;;;;10.93;7.07;;;7.80;99.90;;;;;;5073853;28;20417;-85
2021/11/17 15:54:24;;;;;;;10.87;9.30;;;7.70;99.90;;;;;;5076390;28;20431;-83
2021/11/17 15:56:51;;;;;;;13.37;7.67;;;7.70;99.90;;;;;;5077727;28;20423;-82
2021/11/17 15:59:18;;;;;;;9.97;8.10;;;7.80;99.90;;;;;;5077376;28;20561;-82
2021/11/17 16:01:45;;;;;;;9.40;8.23;;;7.80;99.90;;;;;;5077638;28;20775;-82
2021/11/17 16:04:11;;;;;;;14.70;9.30;;;7.80;99.90;;;;;;5077594;28;20435;-82